Campiña-No se requiere un especial cuidado respecto a la situación meteorológica.   -   No hay avisos

Informes METAR

 

LEZL - Sevilla, Spain
Distancia de la estación: ENE 8km
Actualización: 23/03/2019 07:30
Despejado
Despejado
 Viento de NE
Viento: NE 13 km/h
Temperatura: 10°C
Sensación térmica: 8°C
Rocío: 7°C
Humedad: 82%
Barómetro: 1022 hPa
Resumen: Despejado
Visibilidad: mayor de 10 km
2019/03/23 06:30 LEZL 230630Z 05007KT CAVOK 10/07 Q1022 NOSIG
LEMO - Morón, Spain
Distancia de la estación: SE 43km
Actualización: 23/03/2019 07:00
Despejado
Despejado
 Viento de ENE
Viento: ENE 20 km/h
Temperatura: 10°C
Sensación térmica: 7°C
Rocío: 7°C
Humedad: 82%
Barómetro: 1022 hPa
Resumen: Despejado
Visibilidad: mayor de 10 km
2019/03/23 06:00 LEMO 230600Z 06011KT CAVOK 10/07 Q1022 NOSIG
LEJR - Jeréz, Spain
Distancia de la estación: S 71km
Actualización: 23/03/2019 07:30
Despejado
Despejado
 Viento de calm
Viento: Calma
Temperatura: 8°C
Rocío: 5°C
Humedad: 82%
Barómetro: 1021 hPa
Resumen: Despejado
Visibilidad: mayor de 10 km
2019/03/23 06:30 LEJR 230630Z 00000KT CAVOK 08/05 Q1021
 
LERT - Rota, Spain
Distancia de la estación: SSO 89km
Actualización: 23/03/2019 07:00
Despejado
Despejado
 Viento de NNE
Viento: NNE 11 km/h
Temperatura: 8°C
Sensación térmica: 6°C
Rocío: 4°C
Humedad: 76%
Barómetro: 1020 hPa
Resumen: Despejado
Visibilidad: mayor de 10 km
2019/03/23 06:00 LERT 230600Z 03006KT CAVOK 08/04 Q1020 NOSIG
LEMG - Málaga, Spain
Distancia de la estación: ESE 157km
Actualización: 23/03/2019 07:30
Poco nuboso
Poco nuboso
 Viento de NNO
Viento: NNO 9 km/h
Temperatura: 11°C
Rocío: 9°C
Humedad: 88%
Barómetro: 1023 hPa
Nubes: Poco nuboso
Visibilidad: 10 km
Detalles de las nubes: Poco nuboso 610 m
2019/03/23 06:30 LEMG 230630Z 33005KT 290V350 9999 FEW020 11/09 Q1023 NOSIG
LEBA - Córdoba, Spain
Distancia de la estación: ENE 115km
Actualización: 23/03/2019 07:30
Despejado
Despejado
 Viento de E
Viento: E 9 km/h
Temperatura: 6°C
Sensación térmica: 4°C
Rocío: 4°C
Humedad: 87%
Barómetro: 1023 hPa
Nubes: Despejado
Visibilidad: 10 km
2019/03/23 06:30 LEBA 230630Z AUTO 08005KT 050V130 9999 NCD 06/04 Q1023
 
LEGR - Granada, Spain
Distancia de la estación: E 198km
Actualización: 23/03/2019 07:30
Despejado
Despejado
 Viento de variable
Viento: variable 2 km/h
Temperatura: 2°C
Rocío: 0°C
Humedad: 87%
Barómetro: 1023 hPa
Resumen: Despejado
Visibilidad: mayor de 10 km
2019/03/23 06:30 LEGR 230630Z VRB01KT CAVOK 02/00 Q1023
LEAM - Almería, Spain
Distancia de la estación: E 326km
Actualización: 23/03/2019 07:30
Poco nuboso
Poco nuboso
 Viento de ENE
Viento: ENE 15 km/h
Temperatura: 12°C
Rocío: 5°C
Humedad: 63%
Barómetro: 1024 hPa
Nubes: Poco nuboso
Visibilidad: 10 km
Detalles de las nubes: Poco nuboso 457 m
2019/03/23 06:30 LEAM 230630Z 06008KT 9999 FEW015TCU 12/05 Q1024
LEMD - Madrid/Barajas, Spain
Distancia de la estación: NNE 402km
Actualización: 23/03/2019 07:30
Despejado
Despejado
 Viento de N
Viento: N 6 km/h
Temperatura: 3°C
Rocío: -1°C
Humedad: 75%
Barómetro: 1026 hPa
Resumen: Despejado
Visibilidad: mayor de 10 km
2019/03/23 06:30 LEMD 230630Z 35003KT CAVOK 03/M01 Q1026 NOSIG
 
LEVD - Valladolid, Spain
Distancia de la estación: N 492km
Actualización: 23/03/2019 07:30
Despejado
Despejado
 Viento de E
Viento: E 6 km/h
Temperatura: 0°C
Rocío: -3°C
Humedad: 80%
Barómetro: 1026 hPa
Resumen: Despejado
Visibilidad: mayor de 10 km
2019/03/23 06:30 LEVD 230630Z 10003KT CAVOK 00/M03 Q1026
LEBL - Barcelona, Spain
Distancia de la estación: NE 816km
Actualización: 23/03/2019 07:30
Despejado
Despejado
 Viento de NNO
Viento: NNO 26 km/h
Temperatura: 9°C
Sensación térmica: 6°C
Rocío: 2°C
Humedad: 62%
Barómetro: 1026 hPa
Resumen: Despejado
Visibilidad: mayor de 10 km
2019/03/23 06:30 LEBL 230630Z 33014KT CAVOK 09/02 Q1026 NOSIG
LEVC - Valencia, Spain
Distancia de la estación: ENE 535km
Actualización: 23/03/2019 07:30
Despejado
Despejado
 Viento de NO
Viento: NO 11 km/h
Temperatura: 8°C
Sensación térmica: 6°C
Rocío: 4°C
Humedad: 76%
Barómetro: 1027 hPa
Resumen: Despejado
Visibilidad: mayor de 10 km
2019/03/23 06:30 LEVC 230630Z 32006KT CAVOK 08/04 Q1027 NOSIG